Time;durP1;ratioP1;P1;durP2;ratioP2;P2;SDS_P1;SDS_P2;PMS_P1;PMS_P2;Temp;Humidity;BMP_temperature;BMP_pressure;BME280_temperature;BME280_humidity;BME280_pressure;Samples;Min_cycle;Max_cycle;Signal;HPM_P1;HPM_P2
2021/11/01 00:00:55;;;;;;;32.50;18.50;;;;;;;;;;4899120;29;20045;-67
2021/11/01 00:03:22;;;;;;;33.28;18.35;;;;;;;;;;4898931;29;20029;-64
2021/11/01 00:05:48;;;;;;;34.10;17.83;;;;;;;;;;4899228;29;20032;-68
2021/11/01 00:08:14;;;;;;;33.20;18.60;;;;;;;;;;4899367;29;20059;-64
2021/11/01 00:10:40;;;;;;;31.02;17.27;;;;;;;;;;4899410;29;20036;-66
2021/11/01 00:13:06;;;;;;;31.02;16.85;;;;;;;;;;4899154;29;20072;-66
2021/11/01 00:15:33;;;;;;;29.90;18.35;;;;;;;;;;4898895;29;20037;-65
2021/11/01 00:17:59;;;;;;;31.25;18.08;;;;;;;;;;4899192;29;20051;-62
2021/11/01 00:20:25;;;;;;;32.78;19.20;;;;;;;;;;4898933;29;20036;-65
2021/11/01 00:22:52;;;;;;;31.25;17.55;;;;;;;;;;4898886;29;20025;-62
2021/11/01 00:25:18;;;;;;;32.03;17.63;;;;;;;;;;4898808;29;20025;-63
2021/11/01 00:27:44;;;;;;;31.08;17.40;;;;;;;;;;4898691;29;20024;-65
2021/11/01 00:30:11;;;;;;;32.90;17.88;;;;;;;;;;4898870;29;20429;-64
2021/11/01 00:32:38;;;;;;;32.47;18.00;;;;;;;;;;4899007;29;20032;-64
2021/11/01 00:35:05;;;;;;;29.60;17.23;;;;;;;;;;4898739;29;20029;-66
2021/11/01 00:37:31;;;;;;;31.50;17.35;;;;;;;;;;4898660;29;20024;-67
2021/11/01 00:39:59;;;;;;;30.67;18.08;;;;;;;;;;4898517;29;20033;-67
2021/11/01 00:42:26;;;;;;;30.98;17.85;;;;;;;;;;4898432;29;20025;-65
2021/11/01 00:44:52;;;;;;;32.33;17.73;;;;;;;;;;4898451;29;20033;-64
2021/11/01 00:47:18;;;;;;;31.00;16.95;;;;;;;;;;4898536;29;20072;-67
2021/11/01 00:49:44;;;;;;;32.13;18.75;;;;;;;;;;4898382;29;20021;-65
2021/11/01 00:52:10;;;;;;;33.70;18.52;;;;;;;;;;4898269;29;20496;-63
2021/11/01 00:54:37;;;;;;;29.75;17.88;;;;;;;;;;4898005;29;20036;-68
2021/11/01 00:57:04;;;;;;;31.85;18.10;;;;;;;;;;4898251;29;20032;-67
2021/11/01 00:59:30;;;;;;;29.90;16.88;;;;;;;;;;4898068;29;20032;-63
2021/11/01 01:01:56;;;;;;;30.70;17.92;;;;;;;;;;4897852;29;20051;-64
2021/11/01 01:04:24;;;;;;;28.48;16.73;;;;;;;;;;4898068;29;20097;-67
2021/11/01 01:06:50;;;;;;;31.42;17.23;;;;;;;;;;4898166;29;20039;-66
2021/11/01 01:09:17;;;;;;;27.05;16.52;;;;;;;;;;4898171;29;20025;-67
2021/11/01 01:11:43;;;;;;;30.88;17.55;;;;;;;;;;4898246;29;20087;-71
2021/11/01 01:14:09;;;;;;;27.40;16.92;;;;;;;;;;4897682;29;20029;-65
2021/11/01 01:16:45;;;;;;;26.27;15.93;;;;;;;;;;4897615;29;20052;-70
2021/11/01 01:19:17;;;;;;;35.67;17.27;;;;;;;;;;4897954;29;20040;-66
2021/11/01 01:24:29;;;;;;;30.30;17.30;;;;;;;;;;4898088;29;20044;-67
2021/11/01 01:26:55;;;;;;;27.95;16.13;;;;;;;;;;4897789;29;20441;-65
2021/11/01 01:29:21;;;;;;;28.50;16.65;;;;;;;;;;4897771;29;20025;-66
2021/11/01 01:31:47;;;;;;;28.88;17.17;;;;;;;;;;4897489;29;20039;-67
2021/11/01 01:34:14;;;;;;;29.25;16.17;;;;;;;;;;4897623;29;20056;-67
2021/11/01 01:36:40;;;;;;;28.02;15.73;;;;;;;;;;4898083;29;20029;-64
2021/11/01 01:39:06;;;;;;;26.02;16.35;;;;;;;;;;4897509;29;20465;-70
2021/11/01 01:41:33;;;;;;;28.25;16.40;;;;;;;;;;4897649;29;20402;-66
2021/11/01 01:44:00;;;;;;;28.48;16.80;;;;;;;;;;4897586;29;20024;-64
2021/11/01 01:46:27;;;;;;;31.27;15.90;;;;;;;;;;4897344;29;20036;-67
2021/11/01 01:48:53;;;;;;;27.80;16.48;;;;;;;;;;4897801;29;20032;-68
2021/11/01 01:51:20;;;;;;;24.95;15.75;;;;;;;;;;4897325;29;20032;-69
2021/11/01 01:53:48;;;;;;;29.33;16.27;;;;;;;;;;4897415;29;20029;-66
2021/11/01 01:56:15;;;;;;;29.23;16.77;;;;;;;;;;4897254;29;20060;-66
2021/11/01 01:58:47;;;;;;;26.10;15.43;;;;;;;;;;4897376;29;20024;-64
2021/11/01 02:01:15;;;;;;;28.20;16.30;;;;;;;;;;4864798;29;20037;-63
2021/11/01 02:03:45;;;;;;;27.73;15.63;;;;;;;;;;4897039;29;20487;-65
2021/11/01 02:06:15;;;;;;;27.77;16.25;;;;;;;;;;4896673;29;20087;-63
2021/11/01 02:08:44;;;;;;;29.58;15.93;;;;;;;;;;4896473;29;20483;-63
2021/11/01 02:11:14;;;;;;;24.98;14.25;;;;;;;;;;4897020;29;20560;-66
2021/11/01 02:13:44;;;;;;;27.88;16.05;;;;;;;;;;4896973;29;20033;-63
2021/11/01 02:16:12;;;;;;;28.08;16.00;;;;;;;;;;4896319;29;20053;-65
2021/11/01 02:18:41;;;;;;;26.70;15.15;;;;;;;;;;4897004;29;20034;-66
2021/11/01 02:21:25;;;;;;;26.98;15.68;;;;;;;;;;4896881;29;20040;-67
2021/11/01 02:24:13;;;;;;;25.85;14.68;;;;;;;;;;4896838;29;20032;-65
2021/11/01 02:26:39;;;;;;;28.55;15.35;;;;;;;;;;4896795;29;20128;-66
2021/11/01 02:29:05;;;;;;;27.17;15.43;;;;;;;;;;4896637;29;20028;-65
2021/11/01 02:31:32;;;;;;;25.60;15.82;;;;;;;;;;4879547;29;20406;-66
2021/11/01 02:33:58;;;;;;;24.48;15.02;;;;;;;;;;4896614;29;20036;-63
2021/11/01 02:36:24;;;;;;;26.63;15.85;;;;;;;;;;4896532;29;20032;-65
2021/11/01 02:38:50;;;;;;;25.38;15.13;;;;;;;;;;4896503;29;20036;-66
2021/11/01 02:41:21;;;;;;;27.15;15.20;;;;;;;;;;4896469;29;20036;-66
2021/11/01 02:43:51;;;;;;;26.23;15.10;;;;;;;;;;4896248;29;20035;-66
2021/11/01 02:46:17;;;;;;;24.80;14.90;;;;;;;;;;4896513;29;20071;-64
2021/11/01 02:48:47;;;;;;;24.55;14.60;;;;;;;;;;4896561;29;20040;-65
2021/11/01 02:51:15;;;;;;;25.05;14.82;;;;;;;;;;4896305;29;20085;-69
2021/11/01 02:53:41;;;;;;;27.88;15.45;;;;;;;;;;4896442;29;20491;-66
2021/11/01 02:56:09;;;;;;;28.05;16.08;;;;;;;;;;4896366;29;20536;-71
2021/11/01 02:58:35;;;;;;;26.13;15.82;;;;;;;;;;4896314;29;20024;-64
2021/11/01 03:01:02;;;;;;;25.55;14.88;;;;;;;;;;4896456;29;20046;-70
2021/11/01 03:03:28;;;;;;;25.75;15.25;;;;;;;;;;4897754;29;20497;-64
2021/11/01 03:05:55;;;;;;;25.55;15.80;;;;;;;;;;4897676;29;20037;-63
2021/11/01 03:08:21;;;;;;;26.30;15.23;;;;;;;;;;4896157;29;20037;-64
2021/11/01 03:10:51;;;;;;;25.92;14.70;;;;;;;;;;4896353;29;20503;-64
2021/11/01 03:13:18;;;;;;;26.23;15.50;;;;;;;;;;4896420;29;20140;-64
2021/11/01 03:15:44;;;;;;;26.27;15.77;;;;;;;;;;4895584;29;20037;-63
2021/11/01 03:18:10;;;;;;;23.67;15.18;;;;;;;;;;4895865;29;20111;-64
2021/11/01 03:20:38;;;;;;;23.15;14.95;;;;;;;;;;4896103;29;20057;-64
2021/11/01 03:23:07;;;;;;;24.42;14.82;;;;;;;;;;4896078;29;20492;-66
2021/11/01 03:25:37;;;;;;;26.77;15.90;;;;;;;;;;4895830;29;20029;-66
2021/11/01 03:28:04;;;;;;;27.42;16.30;;;;;;;;;;4895814;29;20033;-64
2021/11/01 03:30:31;;;;;;;26.42;15.35;;;;;;;;;;4895862;29;20029;-64
2021/11/01 03:32:58;;;;;;;24.75;15.35;;;;;;;;;;4895583;29;20104;-66
2021/11/01 03:35:25;;;;;;;28.58;15.43;;;;;;;;;;4895827;29;20028;-63
2021/11/01 03:37:54;;;;;;;26.90;15.13;;;;;;;;;;4895761;29;20021;-66
2021/11/01 03:40:21;;;;;;;27.25;15.82;;;;;;;;;;4895749;29;20072;-65
2021/11/01 03:42:48;;;;;;;27.80;15.40;;;;;;;;;;4895821;29;20053;-65
2021/11/01 03:45:14;;;;;;;27.55;15.77;;;;;;;;;;4895901;29;20044;-64
2021/11/01 03:47:43;;;;;;;28.30;16.30;;;;;;;;;;4895715;29;20040;-65
2021/11/01 03:52:48;;;;;;;25.77;15.73;;;;;;;;;;4895880;29;20047;-64
2021/11/01 03:55:14;;;;;;;27.63;16.42;;;;;;;;;;4895808;29;20068;-65
2021/11/01 03:57:40;;;;;;;28.15;16.08;;;;;;;;;;4895794;29;20024;-65
2021/11/01 04:00:07;;;;;;;28.85;16.23;;;;;;;;;;4895693;29;20037;-67
2021/11/01 04:02:33;;;;;;;27.00;15.70;;;;;;;;;;4895501;29;20472;-63
2021/11/01 04:05:01;;;;;;;26.40;15.40;;;;;;;;;;4895778;29;20056;-66
2021/11/01 04:07:27;;;;;;;27.15;16.77;;;;;;;;;;4895423;29;20048;-69
2021/11/01 04:09:54;;;;;;;25.83;15.82;;;;;;;;;;4895901;29;20497;-64
2021/11/01 04:12:20;;;;;;;29.08;16.38;;;;;;;;;;4895572;29;20080;-64
2021/11/01 04:14:50;;;;;;;29.67;16.25;;;;;;;;;;4895071;29;20429;-66
2021/11/01 04:17:22;;;;;;;27.85;16.45;;;;;;;;;;4895326;29;20059;-65
2021/11/01 04:20:00;;;;;;;28.25;16.08;;;;;;;;;;4895707;29;20057;-67
2021/11/01 04:22:29;;;;;;;26.30;16.48;;;;;;;;;;4895734;29;20028;-64
2021/11/01 04:24:55;;;;;;;28.15;16.33;;;;;;;;;;4895508;29;20422;-67
2021/11/01 04:27:21;;;;;;;28.90;16.02;;;;;;;;;;4895487;29;20033;-66
2021/11/01 04:29:47;;;;;;;28.23;16.77;;;;;;;;;;4895576;29;20043;-67
2021/11/01 04:34:51;;;;;;;26.90;16.70;;;;;;;;;;4898825;29;20029;-67
2021/11/01 04:37:18;;;;;;;27.52;16.70;;;;;;;;;;4898785;29;20190;-66
2021/11/01 04:40:08;;;;;;;27.88;16.77;;;;;;;;;;4898681;29;20072;-66
2021/11/01 04:53:16;;;;;;;31.75;17.65;;;;;;;;;;4898479;29;20084;-64
2021/11/01 04:55:43;;;;;;;30.55;16.83;;;;;;;;;;4881484;29;20040;-67
2021/11/01 04:58:09;;;;;;;28.45;16.85;;;;;;;;;;4898448;29;20040;-66
2021/11/01 05:00:36;;;;;;;29.45;17.23;;;;;;;;;;4898129;29;20104;-64
2021/11/01 05:03:08;;;;;;;30.17;16.92;;;;;;;;;;4898104;29;20020;-68
2021/11/01 05:05:34;;;;;;;;;;;;;;;;;;4898680;29;20036;-64
2021/11/01 05:08:01;;;;;;;28.13;16.85;;;;;;;;;;4898256;29;20323;-63
2021/11/01 05:10:32;;;;;;;30.95;17.67;;;;;;;;;;4898121;29;20028;-67
2021/11/01 05:12:58;;;;;;;30.90;18.17;;;;;;;;;;4898340;29;20183;-67
2021/11/01 05:15:33;;;;;;;29.83;17.27;;;;;;;;;;4897681;29;20528;-65
2021/11/01 05:18:13;;;;;;;31.23;19.00;;;;;;;;;;4897859;29;20505;-66
2021/11/01 05:20:43;;;;;;;31.98;18.38;;;;;;;;;;4897951;29;20025;-63
2021/11/01 05:25:53;;;;;;;31.23;18.13;;;;;;;;;;4897981;29;20033;-62
2021/11/01 05:30:55;;;;;;;34.88;17.85;;;;;;;;;;4897593;29;20063;-63
2021/11/01 05:36:05;;;;;;;33.65;18.02;;;;;;;;;;4897502;29;20048;-63
2021/11/01 05:38:34;;;;;;;29.55;17.90;;;;;;;;;;4897524;29;20017;-62
2021/11/01 05:41:03;;;;;;;31.40;18.50;;;;;;;;;;4887962;29;20047;-70
2021/11/01 05:43:30;;;;;;;32.67;18.00;;;;;;;;;;4888327;29;20100;-64
2021/11/01 05:45:56;;;;;;;31.13;18.40;;;;;;;;;;4886506;29;20029;-63
2021/11/01 05:48:22;;;;;;;32.15;17.88;;;;;;;;;;4888189;29;20021;-64
2021/11/01 05:50:48;;;;;;;30.23;17.85;;;;;;;;;;4888250;29;20477;-65
2021/11/01 05:53:14;;;;;;;30.58;18.23;;;;;;;;;;4886783;29;20064;-63
2021/11/01 05:55:58;;;;;;;29.40;18.23;;;;;;;;;;4893753;29;20032;-63
2021/11/01 05:58:34;;;;;;;28.45;17.52;;;;;;;;;;4894642;29;20377;-63
2021/11/01 06:03:31;;;;;;;29.25;17.50;;;;;;;;;;4896291;29;20537;-63
2021/11/01 06:13:57;;;;;;;32.65;19.40;;;;;;;;;;4897164;29;20115;-64
2021/11/01 06:16:24;;;;;;;33.03;18.27;;;;;;;;;;4896326;29;20056;-63
2021/11/01 06:18:50;;;;;;;35.03;19.00;;;;;;;;;;4894712;29;20084;-63
2021/11/01 06:21:17;;;;;;;32.70;18.90;;;;;;;;;;4897541;29;20123;-64
2021/11/01 06:23:45;;;;;;;35.67;19.08;;;;;;;;;;4896420;29;20021;-66
2021/11/01 06:26:13;;;;;;;32.72;18.67;;;;;;;;;;4905369;29;20571;-67
2021/11/01 06:28:43;;;;;;;31.40;18.08;;;;;;;;;;4892655;29;20054;-69
2021/11/01 06:31:27;;;;;;;32.28;18.27;;;;;;;;;;4895435;29;20029;-72
2021/11/01 06:39:28;;;;;;;31.08;17.35;;;;;;;;;;4893669;29;20040;-65
2021/11/01 06:42:12;;;;;;;27.15;16.88;;;;;;;;;;4904357;29;20400;-70
2021/11/01 06:57:41;;;;;;;31.13;17.20;;;;;;;;;;4808316;29;20571;-71
2021/11/01 07:16:45;;;;;;;27.55;17.10;;;;;;;;;;4812616;29;20179;-64
2021/11/01 08:22:02;;;;;;;23.10;14.30;;;;;;;;;;4901809;29;20048;-64
2021/11/01 08:48:07;;;;;;;31.05;15.88;;;;;;;;;;4897667;29;20082;-60
2021/11/01 09:19:53;;;;;;;22.30;14.75;;;;;;;;;;4821442;29;20048;-66
2021/11/01 09:25:06;;;;;;;24.27;15.13;;;;;;;;;;4821432;29;20034;-66
2021/11/01 09:27:33;;;;;;;26.45;14.90;;;;;;;;;;4821226;29;20042;-67
2021/11/01 09:43:39;;;;;;;26.83;14.63;;;;;;;;;;4798554;29;20046;-66
2021/11/01 09:46:09;;;;;;;24.75;15.10;;;;;;;;;;4787516;29;20053;-66
2021/11/01 09:48:36;;;;;;;23.88;14.77;;;;;;;;;;4803154;29;20113;-66
2021/11/01 09:51:02;;;;;;;27.10;16.35;;;;;;;;;;4802907;29;20042;-72
2021/11/01 09:53:30;;;;;;;31.13;17.50;;;;;;;;;;4802979;29;20575;-71
2021/11/01 10:01:20;;;;;;;29.23;16.95;;;;;;;;;;4802902;29;20062;-68
2021/11/01 10:03:46;;;;;;;;;;;;;;;;;;4803053;29;20042;-72
2021/11/01 10:06:16;;;;;;;24.70;15.52;;;;;;;;;;4802409;29;19913;-79
2021/11/01 10:08:47;;;;;;;24.20;16.15;;;;;;;;;;4802900;29;20459;-69
2021/11/01 10:11:18;;;;;;;25.13;15.23;;;;;;;;;;4821131;29;20042;-73
2021/11/01 10:13:46;;;;;;;26.65;15.45;;;;;;;;;;4820970;29;20189;-67
2021/11/01 10:19:10;;;;;;;29.02;16.45;;;;;;;;;;4847166;29;20056;-64
2021/11/01 10:21:36;;;;;;;26.40;15.30;;;;;;;;;;4905699;29;20063;-65
2021/11/01 10:24:02;;;;;;;24.40;14.90;;;;;;;;;;4904507;29;20028;-69
2021/11/01 10:26:30;;;;;;;27.60;15.05;;;;;;;;;;4902219;29;20485;-72
2021/11/01 10:28:56;;;;;;;27.55;14.80;;;;;;;;;;4898968;29;20806;-68
2021/11/01 10:31:23;;;;;;;23.17;14.27;;;;;;;;;;4893316;29;20029;-68
2021/11/01 10:33:50;;;;;;;25.80;15.02;;;;;;;;;;4901581;29;20400;-68
2021/11/01 10:36:25;;;;;;;27.10;15.05;;;;;;;;;;4903496;29;20036;-66
2021/11/01 10:39:00;;;;;;;23.77;14.73;;;;;;;;;;4903011;29;20115;-68
2021/11/01 10:41:37;;;;;;;23.05;15.10;;;;;;;;;;4907577;29;20500;-69
2021/11/01 10:44:21;;;;;;;26.52;15.38;;;;;;;;;;4907687;29;20028;-64
2021/11/01 11:11:53;;;;;;;27.98;17.02;;;;;;;;;;4902865;29;20128;-74
2021/11/01 11:17:48;;;;;;;26.38;15.32;;;;;;;;;;4902836;29;20458;-67
2021/11/01 11:19:46;;;;;;;28.38;16.17;;;;;;;;;;4884240;29;20872;-70
2021/11/01 11:38:43;;;;;;;24.75;13.68;;;;;;;;;;4914550;29;20044;-75
2021/11/01 11:40:48;;;;;;;22.58;14.10;;;;;;;;;;4907472;29;20131;-75
2021/11/01 11:43:39;;;;;;;19.95;13.40;;;;;;;;;;4918500;29;20030;-75
2021/11/01 11:49:12;;;;;;;23.77;13.80;;;;;;;;;;4904605;29;20056;-69
2021/11/01 11:51:39;;;;;;;21.77;13.63;;;;;;;;;;4905652;29;20021;-68
2021/11/01 11:54:07;;;;;;;26.15;14.25;;;;;;;;;;4906855;29;20131;-72
2021/11/01 11:56:33;;;;;;;26.73;13.38;;;;;;;;;;4903597;29;20047;-65
2021/11/01 11:59:09;;;;;;;21.35;12.85;;;;;;;;;;4906386;29;20028;-72
2021/11/01 12:01:37;;;;;;;20.02;12.57;;;;;;;;;;4908110;29;20559;-67
2021/11/01 12:04:06;;;;;;;23.13;13.80;;;;;;;;;;4907290;29;20120;-68
2021/11/01 12:06:44;;;;;;;23.70;14.30;;;;;;;;;;4897748;29;20388;-72
2021/11/01 12:09:13;;;;;;;22.35;13.25;;;;;;;;;;4907275;29;20032;-72
2021/11/01 12:11:57;;;;;;;21.30;14.02;;;;;;;;;;4904091;29;20123;-70
2021/11/01 12:17:18;;;;;;;23.98;14.02;;;;;;;;;;4820996;29;20057;-74
2021/11/01 12:19:45;;;;;;;25.25;14.02;;;;;;;;;;4821465;29;20099;-72
2021/11/01 12:22:12;;;;;;;27.95;16.00;;;;;;;;;;4822287;29;20054;-65
2021/11/01 12:24:46;;;;;;;22.63;13.60;;;;;;;;;;4814359;29;20031;-66
2021/11/01 12:27:12;;;;;;;25.35;15.50;;;;;;;;;;4813039;29;20031;-71
2021/11/01 12:29:39;;;;;;;25.35;15.35;;;;;;;;;;4819092;29;20522;-68
2021/11/01 12:32:09;;;;;;;26.67;15.82;;;;;;;;;;4821118;29;20167;-74
2021/11/01 12:34:41;;;;;;;25.90;15.00;;;;;;;;;;4820703;29;20042;-73
2021/11/01 12:37:13;;;;;;;23.23;14.63;;;;;;;;;;4820904;29;20030;-66
2021/11/01 12:39:43;;;;;;;26.95;14.55;;;;;;;;;;4821093;29;20022;-72
2021/11/01 12:58:19;;;;;;;22.55;14.85;;;;;;;;;;4895433;29;20044;-65
2021/11/01 13:00:45;;;;;;;24.65;15.25;;;;;;;;;;4904094;29;20399;-68
2021/11/01 13:03:19;;;;;;;30.67;15.98;;;;;;;;;;4896209;29;20052;-70
2021/11/01 13:05:51;;;;;;;26.45;16.15;;;;;;;;;;4899206;29;20065;-65
2021/11/01 13:08:23;;;;;;;;;;;;;;;;;;4897070;29;20028;-67
2021/11/01 13:11:14;;;;;;;30.47;16.80;;;;;;;;;;4897303;29;19907;-69
2021/11/01 13:14:28;;;;;;;26.30;16.20;;;;;;;;;;4901244;29;20052;-68
2021/11/01 13:19:19;;;;;;;28.23;16.15;;;;;;;;;;4901686;29;20550;-67
2021/11/01 13:21:56;;;;;;;25.25;16.27;;;;;;;;;;4899497;29;20036;-66
2021/11/01 13:24:26;;;;;;;24.63;14.98;;;;;;;;;;4896924;29;20029;-66
2021/11/01 13:34:57;;;;;;;28.60;16.55;;;;;;;;;;4897736;29;20044;-66
2021/11/01 13:37:26;;;;;;;27.33;16.45;;;;;;;;;;4897364;29;20060;-64
2021/11/01 13:40:19;;;;;;;27.33;16.75;;;;;;;;;;4897671;29;20103;-66
2021/11/01 13:42:58;;;;;;;30.23;16.85;;;;;;;;;;4894957;29;20059;-66
2021/11/01 13:45:24;;;;;;;28.77;17.13;;;;;;;;;;4897682;29;20024;-66
2021/11/01 13:47:51;;;;;;;29.10;16.30;;;;;;;;;;4896873;29;20116;-67
2021/11/01 13:50:20;;;;;;;30.42;16.42;;;;;;;;;;4896032;29;20918;-67
2021/11/01 13:53:13;;;;;;;28.52;16.75;;;;;;;;;;4895915;29;20040;-66
2021/11/01 13:58:23;;;;;;;28.88;16.45;;;;;;;;;;4895771;29;20557;-67
2021/11/01 14:28:25;;;;;;;34.53;19.08;;;;;;;;;;4895740;29;20104;-66
2021/11/01 15:00:25;;;;;;;40.45;20.75;;;;;;;;;;4808848;29;20560;-68
2021/11/01 15:40:24;;;;;;;112.38;55.58;;;;;;;;;;4838067;29;20042;-65
2021/11/01 16:18:41;;;;;;;59.92;32.25;;;;;;;;;;4833254;29;20571;-64
2021/11/01 16:21:07;;;;;;;58.35;31.00;;;;;;;;;;4829753;29;20044;-66
2021/11/01 16:23:37;;;;;;;59.88;31.90;;;;;;;;;;4827531;29;20109;-64
2021/11/01 16:28:44;;;;;;;77.00;39.90;;;;;;;;;;4830953;29;20026;-65
2021/11/01 16:33:44;;;;;;;84.07;42.78;;;;;;;;;;4839777;29;20832;-68
2021/11/01 16:36:21;;;;;;;80.70;42.83;;;;;;;;;;4839882;29;20034;-65
2021/11/01 16:38:53;;;;;;;82.97;42.92;;;;;;;;;;4823554;29;20035;-65
2021/11/01 16:41:20;;;;;;;77.65;42.42;;;;;;;;;;4821998;29;20042;-67
2021/11/01 16:43:47;;;;;;;82.03;41.72;;;;;;;;;;4821694;29;20038;-66
2021/11/01 16:46:13;;;;;;;80.70;42.08;;;;;;;;;;4821604;29;20248;-65
2021/11/01 16:48:39;;;;;;;81.82;41.85;;;;;;;;;;4823483;29;20144;-64
2021/11/01 16:51:05;;;;;;;82.05;42.80;;;;;;;;;;4857297;29;20041;-64
2021/11/01 16:53:33;;;;;;;80.50;40.88;;;;;;;;;;4897170;29;20064;-64
2021/11/01 16:56:23;;;;;;;74.32;40.90;;;;;;;;;;4904517;29;20036;-65
2021/11/01 16:58:53;;;;;;;80.78;43.35;;;;;;;;;;4903350;29;20047;-64
2021/11/01 17:01:22;;;;;;;82.07;42.78;;;;;;;;;;4904651;29;20033;-63
2021/11/01 17:03:54;;;;;;;79.50;41.35;;;;;;;;;;4914123;29;20031;-65
2021/11/01 17:25:26;;;;;;;84.35;43.95;;;;;;;;;;4902126;29;20171;-65
2021/11/01 18:51:06;;;;;;;68.22;36.83;;;;;;;;;;4896251;29;20087;-63
2021/11/01 18:53:53;;;;;;;68.15;36.53;;;;;;;;;;4896254;29;20493;-63
2021/11/01 18:56:24;;;;;;;68.80;35.97;;;;;;;;;;4896146;29;20032;-64
2021/11/01 18:58:54;;;;;;;62.50;36.05;;;;;;;;;;4895955;29;20025;-64
2021/11/01 19:01:20;;;;;;;71.03;35.85;;;;;;;;;;4895982;29;20135;-64
2021/11/01 19:03:50;;;;;;;67.15;36.53;;;;;;;;;;4895818;29;20036;-64
2021/11/01 20:14:32;;;;;;;65.53;33.58;;;;;;;;;;4822558;29;20034;-63
2021/11/01 21:26:30;;;;;;;42.40;24.27;;;;;;;;;;4879352;29;20493;-65
2021/11/01 21:28:57;;;;;;;41.03;22.83;;;;;;;;;;4879155;29;20111;-64
2021/11/01 21:31:23;;;;;;;44.78;24.15;;;;;;;;;;4890771;29;20055;-64
2021/11/01 21:33:54;;;;;;;45.17;24.50;;;;;;;;;;4897492;29;20499;-64
2021/11/01 21:36:24;;;;;;;40.05;23.98;;;;;;;;;;4897430;29;20031;-64
2021/11/01 21:38:54;;;;;;;43.92;23.00;;;;;;;;;;4897723;29;20033;-64
2021/11/01 21:41:20;;;;;;;40.70;23.02;;;;;;;;;;4897235;29;20124;-64
2021/11/01 21:43:46;;;;;;;40.50;22.50;;;;;;;;;;4894630;29;20029;-64
2021/11/01 21:46:13;;;;;;;41.85;23.83;;;;;;;;;;4897389;29;20047;-64
2021/11/01 21:48:39;;;;;;;43.42;24.20;;;;;;;;;;4897323;29;20051;-64
2021/11/01 21:51:05;;;;;;;43.25;23.90;;;;;;;;;;4897718;29;20040;-64
2021/11/01 21:53:32;;;;;;;41.17;23.75;;;;;;;;;;4897205;29;20031;-64
2021/11/01 21:55:58;;;;;;;43.65;24.35;;;;;;;;;;4895406;29;20553;-64
2021/11/01 22:17:33;;;;;;;42.10;23.23;;;;;;;;;;4880490;29;20598;-65
2021/11/01 22:20:11;;;;;;;37.25;22.45;;;;;;;;;;4889079;29;20067;-65
2021/11/01 22:22:46;;;;;;;35.55;21.75;;;;;;;;;;4896563;29;20035;-65
2021/11/01 22:33:14;;;;;;;38.47;21.88;;;;;;;;;;4885063;29;20035;-65
2021/11/01 22:46:20;;;;;;;41.00;21.83;;;;;;;;;;4877643;29;20041;-64
2021/11/01 22:59:11;;;;;;;39.33;21.98;;;;;;;;;;4894889;29;20127;-63
